createdAt,value
2023-06-15T00:01:06.448Z,67.70
2023-06-15T00:03:33.952Z,68.00
2023-06-15T00:06:01.091Z,68.20
2023-06-15T00:08:28.236Z,68.30
2023-06-15T00:10:55.337Z,68.30
2023-06-15T00:13:22.290Z,68.40
2023-06-15T00:15:49.840Z,68.60
2023-06-15T00:18:18.693Z,68.80
2023-06-15T00:20:46.587Z,69.10
2023-06-15T00:23:16.267Z,69.40
2023-06-15T00:25:43.202Z,70.00
2023-06-15T00:28:11.031Z,70.30
2023-06-15T00:30:37.946Z,70.70
2023-06-15T00:33:04.969Z,71.00
2023-06-15T00:35:32.029Z,71.00
2023-06-15T00:37:59.113Z,71.30
2023-06-15T00:40:26.165Z,71.20
2023-06-15T00:42:53.361Z,71.60
2023-06-15T00:45:20.653Z,71.80
2023-06-15T00:47:48.503Z,71.70
2023-06-15T00:50:20.767Z,72.00
2023-06-15T00:52:50.441Z,71.90
2023-06-15T00:55:18.575Z,72.10
2023-06-15T00:57:50.534Z,72.50
2023-06-15T01:00:19.667Z,72.80
2023-06-15T01:02:50.150Z,73.00
2023-06-15T01:05:19.094Z,73.30
2023-06-15T01:07:48.479Z,73.30
2023-06-15T01:10:24.336Z,73.40
2023-06-15T01:12:55.430Z,73.40
2023-06-15T01:15:25.505Z,73.40
2023-06-15T01:17:59.365Z,73.50
2023-06-15T01:20:44.279Z,73.50
2023-06-15T01:23:34.571Z,73.70
2023-06-15T01:26:07.168Z,73.90
2023-06-15T01:28:46.519Z,74.20
2023-06-15T01:31:14.454Z,74.50
2023-06-15T01:33:51.500Z,74.60
2023-06-15T01:36:21.085Z,74.60
2023-06-15T01:38:54.268Z,74.80
2023-06-15T01:41:24.327Z,75.10
2023-06-15T01:43:52.903Z,75.10
2023-06-15T01:46:22.412Z,75.50
2023-06-15T01:48:50.492Z,75.50
2023-06-15T01:51:18.498Z,75.60
2023-06-15T01:53:46.843Z,75.80
2023-06-15T01:56:15.612Z,76.10
2023-06-15T01:58:42.695Z,76.10
2023-06-15T02:01:09.713Z,76.20
2023-06-15T02:03:36.738Z,76.40
2023-06-15T02:06:03.861Z,76.50
2023-06-15T02:08:31.130Z,76.60
2023-06-15T02:10:58.116Z,76.80
2023-06-15T02:13:25.081Z,76.90
2023-06-15T02:15:52.433Z,76.90
2023-06-15T02:18:22.026Z,78.00
2023-06-15T02:20:51.268Z,77.20
2023-06-15T02:23:18.857Z,77.60
2023-06-15T02:25:45.824Z,77.70
2023-06-15T02:28:12.798Z,77.70
2023-06-15T02:30:39.944Z,77.80
2023-06-15T02:33:09.276Z,78.00
2023-06-15T02:35:36.735Z,78.20
2023-06-15T02:38:03.694Z,78.60
2023-06-15T02:40:32.094Z,78.60
2023-06-15T02:42:59.024Z,78.80
2023-06-15T02:45:26.220Z,78.90
2023-06-15T02:47:53.257Z,79.00
2023-06-15T02:50:20.957Z,79.30
2023-06-15T02:52:48.272Z,79.50
2023-06-15T02:55:15.817Z,80.00
2023-06-15T02:57:43.589Z,80.10
2023-06-15T03:00:13.987Z,80.40
2023-06-15T03:02:44.288Z,80.90
2023-06-15T03:05:12.578Z,81.00
2023-06-15T03:07:41.749Z,81.30
2023-06-15T03:10:09.403Z,81.60
2023-06-15T03:12:36.592Z,82.10
2023-06-15T03:15:04.293Z,82.40
2023-06-15T03:17:33.785Z,82.70
2023-06-15T03:20:01.827Z,82.90
2023-06-15T03:22:28.986Z,83.50
2023-06-15T03:24:56.434Z,83.60
2023-06-15T03:27:25.069Z,83.80
2023-06-15T03:29:52.866Z,84.10
2023-06-15T03:32:20.021Z,84.40
2023-06-15T03:34:47.813Z,84.60
2023-06-15T03:37:15.187Z,84.90
2023-06-15T03:39:42.125Z,85.10
2023-06-15T03:42:09.384Z,85.40
2023-06-15T03:44:36.669Z,85.90
2023-06-15T03:47:04.529Z,86.20
2023-06-15T03:49:31.485Z,86.50
2023-06-15T03:51:58.508Z,86.80
2023-06-15T03:54:25.521Z,87.10
2023-06-15T03:56:55.599Z,87.50
2023-06-15T03:59:22.509Z,87.70
2023-06-15T04:01:49.560Z,88.00
2023-06-15T04:04:17.096Z,88.40
2023-06-15T04:06:47.938Z,88.80
2023-06-15T04:09:18.283Z,89.20
2023-06-15T04:11:45.251Z,89.60
2023-06-15T04:14:13.465Z,90.00
2023-06-15T04:16:40.464Z,90.10
2023-06-15T04:19:08.588Z,90.30
2023-06-15T04:21:36.016Z,90.50
2023-06-15T04:24:03.243Z,90.70
2023-06-15T04:26:30.371Z,90.80
2023-06-15T04:29:01.341Z,91.00
2023-06-15T04:31:32.342Z,91.20
2023-06-15T04:34:00.517Z,91.30
2023-06-15T04:36:34.689Z,91.50
2023-06-15T04:39:02.902Z,91.80
2023-06-15T04:41:31.327Z,92.00
2023-06-15T04:43:59.556Z,92.30
2023-06-15T04:46:26.502Z,92.50
2023-06-15T04:48:53.816Z,92.80
2023-06-15T04:51:21.045Z,92.90
2023-06-15T04:53:48.217Z,93.20
2023-06-15T04:56:15.309Z,93.30
2023-06-15T04:58:44.189Z,93.60
2023-06-15T05:01:11.162Z,93.90
2023-06-15T05:03:38.231Z,94.10
2023-06-15T05:06:06.237Z,94.60
2023-06-15T05:08:38.990Z,94.40
2023-06-15T05:11:06.380Z,94.70
2023-06-15T05:13:33.502Z,94.90
2023-06-15T05:16:00.501Z,95.20
2023-06-15T05:18:27.987Z,95.40
2023-06-15T05:20:55.971Z,95.60
2023-06-15T05:23:25.653Z,95.80
2023-06-15T05:25:52.904Z,96.00
2023-06-15T05:28:21.815Z,96.30
2023-06-15T05:30:48.891Z,96.60
2023-06-15T05:33:15.983Z,96.70
2023-06-15T05:35:42.976Z,96.90
2023-06-15T05:38:10.498Z,97.30
2023-06-15T05:40:40.721Z,97.10
2023-06-15T05:43:08.763Z,97.40
2023-06-15T05:45:38.919Z,97.60
2023-06-15T05:48:08.240Z,97.60
2023-06-15T05:50:41.233Z,97.90
2023-06-15T05:53:08.376Z,98.20
2023-06-15T05:55:35.646Z,98.00
2023-06-15T05:58:04.204Z,98.20
2023-06-15T06:00:32.991Z,98.50
2023-06-15T06:03:00.452Z,98.50
2023-06-15T06:05:27.478Z,98.60
2023-06-15T06:07:54.534Z,98.80
2023-06-15T06:10:21.498Z,99.00
2023-06-15T06:12:48.486Z,99.60
2023-06-15T06:15:19.103Z,99.80
2023-06-15T06:18:03.917Z,99.00
2023-06-15T06:20:33.777Z,96.70
2023-06-15T06:23:00.744Z,93.50
2023-06-15T06:25:29.112Z,91.10
2023-06-15T06:27:56.419Z,87.50
2023-06-15T06:30:23.491Z,83.50
2023-06-15T06:32:53.979Z,80.00
2023-06-15T06:35:21.226Z,76.50
2023-06-15T06:37:49.078Z,73.10
2023-06-15T06:40:16.031Z,70.80
2023-06-15T06:42:43.819Z,69.30
2023-06-15T06:45:12.321Z,67.30
2023-06-15T06:47:39.352Z,65.20
2023-06-15T06:50:07.663Z,63.60
2023-06-15T06:52:34.650Z,63.00
2023-06-15T06:55:01.721Z,61.30
2023-06-15T06:57:29.375Z,60.20
2023-06-15T06:59:56.939Z,59.30
2023-06-15T07:02:24.129Z,57.40
2023-06-15T07:04:51.605Z,57.40
2023-06-15T07:07:18.537Z,56.40
2023-06-15T07:09:45.590Z,56.10
2023-06-15T07:12:12.742Z,56.00
2023-06-15T07:14:41.164Z,55.40
2023-06-15T07:17:09.519Z,55.00
2023-06-15T07:19:36.638Z,54.30
2023-06-15T07:22:03.577Z,53.70
2023-06-15T07:24:30.697Z,53.10
2023-06-15T07:26:58.833Z,52.50
2023-06-15T07:29:26.514Z,51.90
2023-06-15T07:31:53.819Z,51.80
2023-06-15T07:34:20.923Z,51.90
2023-06-15T07:36:47.965Z,51.10
2023-06-15T07:39:14.977Z,50.50
2023-06-15T07:41:41.893Z,50.30
2023-06-15T07:44:13.717Z,48.90
2023-06-15T07:46:43.040Z,48.30
2023-06-15T07:49:14.005Z,48.50
2023-06-15T07:51:52.558Z,48.20
2023-06-15T07:54:27.430Z,47.80
2023-06-15T07:56:54.385Z,47.80
2023-06-15T07:59:21.452Z,47.60
2023-06-15T08:01:51.175Z,46.60
2023-06-15T08:04:18.543Z,45.40
2023-06-15T08:06:45.682Z,45.10
2023-06-15T08:09:13.099Z,44.50
2023-06-15T08:11:41.150Z,44.80
2023-06-15T08:14:09.503Z,45.00
2023-06-15T08:16:37.109Z,44.60
2023-06-15T08:19:04.123Z,44.50
2023-06-15T08:21:31.410Z,44.00
2023-06-15T08:23:58.406Z,44.00
2023-06-15T08:26:25.402Z,44.40
2023-06-15T08:28:55.248Z,43.60
2023-06-15T08:31:25.263Z,42.90
2023-06-15T08:33:53.433Z,42.10
2023-06-15T08:36:20.369Z,42.30
2023-06-15T08:38:47.504Z,42.50
2023-06-15T08:41:15.197Z,42.10
2023-06-15T08:43:44.915Z,42.30
2023-06-15T08:46:12.577Z,41.40
2023-06-15T08:48:41.158Z,41.80
2023-06-15T08:51:13.666Z,40.80
2023-06-15T08:53:48.938Z,41.00
2023-06-15T08:56:16.097Z,40.10
2023-06-15T08:58:55.026Z,39.90
2023-06-15T09:01:24.186Z,39.60
2023-06-15T09:03:54.168Z,40.00
2023-06-15T09:06:22.745Z,39.40
2023-06-15T09:08:50.337Z,38.70
2023-06-15T09:11:18.635Z,39.30
2023-06-15T09:13:46.537Z,39.60
2023-06-15T09:16:14.086Z,39.80
2023-06-15T09:18:50.472Z,40.10
2023-06-15T09:21:19.791Z,38.30
2023-06-15T09:23:48.101Z,37.80
2023-06-15T09:26:27.364Z,38.40
2023-06-15T09:28:59.434Z,38.20
2023-06-15T09:31:35.542Z,39.30
2023-06-15T09:34:13.935Z,39.90
2023-06-15T09:36:41.734Z,39.40
2023-06-15T09:39:11.147Z,39.80
2023-06-15T09:41:54.301Z,40.40
2023-06-15T09:44:23.502Z,40.50
2023-06-15T09:47:00.593Z,40.90
2023-06-15T09:49:29.418Z,40.90
2023-06-15T09:51:57.311Z,40.30
2023-06-15T09:54:29.333Z,40.40
2023-06-15T09:56:57.231Z,40.50
2023-06-15T09:59:24.969Z,41.10
2023-06-15T10:01:56.464Z,41.00
2023-06-15T10:04:31.267Z,41.50
2023-06-15T10:07:12.746Z,40.70
2023-06-15T10:09:50.677Z,40.80
2023-06-15T10:12:24.263Z,41.00
2023-06-15T10:15:12.361Z,41.50
2023-06-15T10:17:43.054Z,41.00
2023-06-15T10:20:19.687Z,40.90
2023-06-15T10:23:08.676Z,40.90
2023-06-15T10:25:36.731Z,40.90
2023-06-15T10:28:10.867Z,41.00
2023-06-15T10:31:01.996Z,41.10
2023-06-15T10:33:33.818Z,41.40
2023-06-15T10:36:10.365Z,41.30
2023-06-15T10:38:50.644Z,40.80
2023-06-15T10:41:17.939Z,40.70
2023-06-15T10:44:06.822Z,40.90
2023-06-15T10:46:37.106Z,40.50
2023-06-15T10:49:06.620Z,40.00
2023-06-15T10:51:43.131Z,39.80
2023-06-15T10:54:27.953Z,39.70
2023-06-15T10:56:59.687Z,38.90
2023-06-15T10:59:56.163Z,39.00
2023-06-15T11:02:29.772Z,39.90
2023-06-15T11:05:05.288Z,39.60
2023-06-15T11:07:42.741Z,39.80
2023-06-15T11:10:16.318Z,39.40
2023-06-15T11:12:45.827Z,39.60
2023-06-15T11:15:17.225Z,39.80
2023-06-15T11:17:59.703Z,40.70
2023-06-15T11:20:43.455Z,41.30
2023-06-15T11:23:20.560Z,41.90
2023-06-15T11:25:50.095Z,41.90
2023-06-15T11:28:35.936Z,42.30
2023-06-15T11:31:08.291Z,42.20
2023-06-15T11:33:38.898Z,42.30
2023-06-15T11:36:11.846Z,42.20
2023-06-15T11:38:39.423Z,42.00
2023-06-15T11:41:25.198Z,42.10
2023-06-15T11:43:53.409Z,41.90
2023-06-15T11:46:23.036Z,41.50
2023-06-15T11:48:56.274Z,41.50
2023-06-15T11:51:23.877Z,41.50
2023-06-15T11:53:54.873Z,42.30
2023-06-15T11:56:23.205Z,41.50
2023-06-15T11:58:51.455Z,41.50
2023-06-15T12:01:21.977Z,41.40
2023-06-15T12:06:22.763Z,41.80
2023-06-15T12:08:55.958Z,41.90
2023-06-15T12:11:24.690Z,42.10
2023-06-15T12:13:52.227Z,42.20
2023-06-15T12:16:19.960Z,42.40
2023-06-15T12:18:59.869Z,42.80
2023-06-15T12:21:33.686Z,41.30
2023-06-15T12:24:01.991Z,41.20
2023-06-15T12:26:34.165Z,41.40
2023-06-15T12:29:15.778Z,41.70
2023-06-15T12:31:42.727Z,42.70
2023-06-15T12:34:14.045Z,42.70
2023-06-15T12:36:41.750Z,42.60
2023-06-15T12:39:13.614Z,42.20
2023-06-15T12:41:43.147Z,42.20
2023-06-15T12:44:11.117Z,41.90
2023-06-15T12:46:40.834Z,41.20
2023-06-15T12:49:09.662Z,41.40
2023-06-15T12:51:37.492Z,40.60
2023-06-15T12:54:05.388Z,40.10
2023-06-15T12:56:37.751Z,39.90
2023-06-15T12:59:05.024Z,39.70
2023-06-15T13:01:33.830Z,40.10
2023-06-15T13:04:01.532Z,40.20
2023-06-15T13:06:28.921Z,39.90
2023-06-15T13:08:57.294Z,39.70
2023-06-15T13:11:24.271Z,39.60
2023-06-15T13:13:51.269Z,39.10
2023-06-15T13:16:18.254Z,38.70
2023-06-15T13:18:45.985Z,38.50
2023-06-15T13:21:13.610Z,38.40
2023-06-15T13:23:40.553Z,38.00
2023-06-15T13:26:07.497Z,38.20
2023-06-15T13:28:35.317Z,38.20
2023-06-15T13:31:02.545Z,38.40
2023-06-15T13:33:29.503Z,38.70
2023-06-15T13:35:58.449Z,39.10
2023-06-15T13:38:25.501Z,37.80
2023-06-15T13:40:52.463Z,37.50
2023-06-15T13:43:20.916Z,38.30
2023-06-15T13:45:47.843Z,39.60
2023-06-15T13:48:14.814Z,39.40
2023-06-15T13:50:42.091Z,38.90
2023-06-15T13:53:09.344Z,38.60
2023-06-15T13:55:36.308Z,38.40
2023-06-15T13:58:03.639Z,37.80
2023-06-15T14:00:30.938Z,38.00
2023-06-15T14:02:58.376Z,38.20
2023-06-15T14:05:26.820Z,37.80
2023-06-15T14:07:53.883Z,38.00
2023-06-15T14:10:21.213Z,38.30
2023-06-15T14:12:49.784Z,38.70
2023-06-15T14:15:16.870Z,38.60
2023-06-15T14:17:44.067Z,38.70
2023-06-15T14:20:11.846Z,39.00
2023-06-15T14:22:38.843Z,39.10
2023-06-15T14:25:06.885Z,38.90
2023-06-15T14:27:33.897Z,39.50
2023-06-15T14:30:00.902Z,39.60
2023-06-15T14:32:28.402Z,39.40
2023-06-15T14:34:55.529Z,39.10
2023-06-15T14:37:22.730Z,39.20
2023-06-15T14:39:49.728Z,39.00
2023-06-15T14:42:20.772Z,38.50
2023-06-15T14:44:50.219Z,39.00
2023-06-15T14:47:18.374Z,38.80
2023-06-15T14:49:45.393Z,38.80
2023-06-15T14:52:12.624Z,38.10
2023-06-15T14:54:42.435Z,38.40
2023-06-15T14:57:12.305Z,38.20
2023-06-15T14:59:42.337Z,38.70
2023-06-15T15:02:15.984Z,38.90
2023-06-15T15:04:47.493Z,38.20
2023-06-15T15:07:14.597Z,38.30
2023-06-15T15:09:41.514Z,38.40
2023-06-15T15:12:10.076Z,38.20
2023-06-15T15:14:37.461Z,38.20
2023-06-15T15:17:04.948Z,37.80
2023-06-15T15:19:34.947Z,37.20
2023-06-15T15:22:03.801Z,37.10
2023-06-15T15:24:33.058Z,37.40
2023-06-15T15:27:00.358Z,37.30
2023-06-15T15:29:28.415Z,37.60
2023-06-15T15:31:55.437Z,37.40
2023-06-15T15:34:22.608Z,37.30
2023-06-15T15:36:49.866Z,37.70
2023-06-15T15:39:18.158Z,37.40
2023-06-15T15:41:46.947Z,37.20
2023-06-15T15:44:13.897Z,36.40
2023-06-15T15:46:41.116Z,36.40
2023-06-15T15:49:08.437Z,36.70
2023-06-15T15:51:36.589Z,36.40
2023-06-15T15:54:03.756Z,36.40
2023-06-15T15:56:30.813Z,36.50
2023-06-15T15:58:57.735Z,36.60
2023-06-15T16:01:28.381Z,36.20
2023-06-15T16:03:55.718Z,36.10
2023-06-15T16:06:22.869Z,35.90
2023-06-15T16:08:49.782Z,36.30
2023-06-15T16:11:16.704Z,35.60
2023-06-15T16:13:44.319Z,36.50
2023-06-15T16:16:27.548Z,36.80
2023-06-15T16:18:57.807Z,36.50
2023-06-15T16:21:25.939Z,35.90
2023-06-15T16:23:53.180Z,35.80
2023-06-15T16:26:20.300Z,35.80
2023-06-15T16:28:48.213Z,36.00
2023-06-15T16:31:17.719Z,36.30
2023-06-15T16:33:45.620Z,36.20
2023-06-15T16:36:12.552Z,36.00
2023-06-15T16:38:58.458Z,35.80
2023-06-15T16:41:25.637Z,36.10
2023-06-15T16:43:54.787Z,35.90
2023-06-15T16:46:22.090Z,36.20
2023-06-15T16:48:49.464Z,36.20
2023-06-15T16:51:16.810Z,36.60
2023-06-15T16:53:43.923Z,37.00
2023-06-15T16:56:11.225Z,36.90
2023-06-15T16:58:38.195Z,36.80
2023-06-15T17:01:05.574Z,36.80
2023-06-15T17:03:34.835Z,36.80
2023-06-15T17:06:03.548Z,36.70
2023-06-15T17:08:30.488Z,36.70
2023-06-15T17:10:57.743Z,37.10
2023-06-15T17:13:24.655Z,37.10
2023-06-15T17:15:51.801Z,36.70
2023-06-15T17:18:19.378Z,36.40
2023-06-15T17:20:47.481Z,37.20
2023-06-15T17:23:14.410Z,36.60
2023-06-15T17:25:41.399Z,36.90
2023-06-15T17:28:08.327Z,37.10
2023-06-15T17:30:35.504Z,36.60
2023-06-15T17:33:03.709Z,36.40
2023-06-15T17:35:30.687Z,36.10
2023-06-15T17:37:57.838Z,36.20
2023-06-15T17:40:29.780Z,36.60
2023-06-15T17:42:56.967Z,37.00
2023-06-15T17:45:23.965Z,37.30
2023-06-15T17:47:51.284Z,37.80
2023-06-15T17:50:18.621Z,38.30
2023-06-15T17:52:45.668Z,38.50
2023-06-15T17:55:12.661Z,38.80
2023-06-15T17:57:40.650Z,39.30
2023-06-15T18:00:08.991Z,39.30
2023-06-15T18:02:39.684Z,39.60
2023-06-15T18:05:07.731Z,40.50
2023-06-15T18:07:34.732Z,40.80
2023-06-15T18:10:01.743Z,41.60
2023-06-15T18:12:30.400Z,41.90
2023-06-15T18:14:58.386Z,42.40
2023-06-15T18:17:25.449Z,42.90
2023-06-15T18:19:52.393Z,43.50
2023-06-15T18:22:19.348Z,43.90
2023-06-15T18:24:46.307Z,44.00
2023-06-15T18:27:13.245Z,44.20
2023-06-15T18:29:40.185Z,44.40
2023-06-15T18:32:07.649Z,44.60
2023-06-15T18:34:34.587Z,44.80
2023-06-15T18:37:01.774Z,45.10
2023-06-15T18:39:28.892Z,45.90
2023-06-15T18:41:55.888Z,46.40
2023-06-15T18:44:22.791Z,46.80
2023-06-15T18:46:50.296Z,47.30
2023-06-15T18:49:17.439Z,47.50
2023-06-15T18:51:44.749Z,47.60
2023-06-15T18:54:12.096Z,48.00
2023-06-15T18:56:39.026Z,48.30
2023-06-15T18:59:07.213Z,48.50
2023-06-15T19:01:34.209Z,48.60
2023-06-15T19:04:01.151Z,48.70
2023-06-15T19:06:28.138Z,49.30
2023-06-15T19:08:55.851Z,49.10
2023-06-15T19:11:25.691Z,49.40
2023-06-15T19:13:52.946Z,49.40
2023-06-15T19:16:20.056Z,49.50
2023-06-15T19:18:47.066Z,49.70
2023-06-15T19:21:14.114Z,49.80
2023-06-15T19:24:26.373Z,49.80
2023-06-15T19:26:57.240Z,49.80
2023-06-15T19:29:24.228Z,50.00
2023-06-15T19:31:53.089Z,50.10
2023-06-15T19:34:22.199Z,50.40
2023-06-15T19:36:55.773Z,50.60
2023-06-15T19:39:24.286Z,50.90
2023-06-15T19:41:52.331Z,51.20
2023-06-15T19:44:19.870Z,51.50
2023-06-15T19:46:47.242Z,51.60
2023-06-15T19:49:14.388Z,51.80
2023-06-15T19:51:43.194Z,52.00
2023-06-15T19:54:10.479Z,52.50
2023-06-15T19:56:42.146Z,53.00
2023-06-15T19:59:09.571Z,53.20
2023-06-15T20:01:36.601Z,53.50
2023-06-15T20:04:04.965Z,53.80
2023-06-15T20:06:32.218Z,54.20
2023-06-15T20:09:00.474Z,54.50
2023-06-15T20:11:29.701Z,54.80
2023-06-15T20:13:56.765Z,55.00
2023-06-15T20:16:23.758Z,55.20
2023-06-15T20:18:53.347Z,55.60
2023-06-15T20:21:21.871Z,55.70
2023-06-15T20:23:49.040Z,55.90
2023-06-15T20:26:17.971Z,56.20
2023-06-15T20:28:50.207Z,56.20
2023-06-15T20:31:23.650Z,56.30
2023-06-15T20:34:45.927Z,56.30
2023-06-15T20:37:15.246Z,56.50
2023-06-15T20:39:46.152Z,56.40
2023-06-15T20:42:15.855Z,56.40
2023-06-15T20:44:42.760Z,56.60
2023-06-15T20:47:09.786Z,56.90
2023-06-15T20:49:36.758Z,57.10
2023-06-15T20:52:04.161Z,57.20
2023-06-15T20:54:31.207Z,57.50
2023-06-15T20:56:58.160Z,57.80
2023-06-15T20:59:25.271Z,58.30
2023-06-15T21:01:52.219Z,58.50
2023-06-15T21:04:19.865Z,58.80
2023-06-15T21:06:46.890Z,59.10
2023-06-15T21:09:15.253Z,59.50
2023-06-15T21:11:42.163Z,59.70
2023-06-15T21:14:09.117Z,60.80
2023-06-15T21:16:38.152Z,60.50
2023-06-15T21:19:05.349Z,61.00
2023-06-15T21:21:32.366Z,61.50
2023-06-15T21:23:59.357Z,61.80
2023-06-15T21:26:26.653Z,62.10
2023-06-15T21:28:54.852Z,62.30
2023-06-15T21:31:21.747Z,62.40
2023-06-15T21:33:48.695Z,62.80
2023-06-15T21:36:16.055Z,63.00
2023-06-15T21:38:43.016Z,63.30
2023-06-15T21:41:09.913Z,63.60
2023-06-15T21:43:39.223Z,63.80
2023-06-15T21:46:07.815Z,64.20
2023-06-15T21:48:34.812Z,64.20
2023-06-15T21:51:01.840Z,64.20
2023-06-15T21:53:28.828Z,64.40
2023-06-15T21:55:55.790Z,63.90
2023-06-15T21:58:23.780Z,63.60
2023-06-15T22:00:51.788Z,64.30
2023-06-15T22:03:18.816Z,63.40
2023-06-15T22:05:46.593Z,63.30
2023-06-15T22:08:14.783Z,63.40
2023-06-15T22:10:41.752Z,63.70
2023-06-15T22:13:08.792Z,64.00
2023-06-15T22:15:35.786Z,64.40
2023-06-15T22:18:02.852Z,64.80
2023-06-15T22:20:31.109Z,65.50
2023-06-15T22:22:58.069Z,66.10
2023-06-15T22:25:27.470Z,66.80
2023-06-15T22:27:55.291Z,66.60
2023-06-15T22:30:22.201Z,66.70
2023-06-15T22:32:55.451Z,66.80
2023-06-15T22:35:22.604Z,66.80
2023-06-15T22:37:50.987Z,67.00
2023-06-15T22:40:18.447Z,67.30
2023-06-15T22:42:46.179Z,67.60
2023-06-15T22:45:13.314Z,68.00
2023-06-15T22:47:42.908Z,68.10
2023-06-15T22:50:10.624Z,68.40
2023-06-15T22:52:38.440Z,68.60
2023-06-15T22:55:06.582Z,68.80
2023-06-15T22:57:33.547Z,69.00
2023-06-15T23:00:00.633Z,69.50
2023-06-15T23:02:27.658Z,69.90
2023-06-15T23:04:56.093Z,70.10
2023-06-15T23:07:24.772Z,70.50
2023-06-15T23:09:51.772Z,70.80
2023-06-15T23:12:20.013Z,71.40
2023-06-15T23:14:53.807Z,71.80
2023-06-15T23:17:22.127Z,72.10
2023-06-15T23:19:50.477Z,72.60
2023-06-15T23:22:23.700Z,72.90
2023-06-15T23:24:55.073Z,73.40
2023-06-15T23:27:25.043Z,73.70
2023-06-15T23:29:51.963Z,74.20
2023-06-15T23:32:19.064Z,74.60
2023-06-15T23:34:46.534Z,75.10
2023-06-15T23:37:13.439Z,75.70
2023-06-15T23:39:40.709Z,76.30
2023-06-15T23:42:08.602Z,76.90
2023-06-15T23:44:35.579Z,77.50
2023-06-15T23:47:02.709Z,78.10
2023-06-15T23:49:30.382Z,78.70
2023-06-15T23:51:57.309Z,79.50
2023-06-15T23:54:24.227Z,80.10
2023-06-15T23:56:51.121Z,80.70
2023-06-15T23:59:18.132Z,81.50
